PWSweather.com
Personal Weather Stations
Station Observations

BunburyAU

Lat: -33.378333, Lon: 115.651667

Elevation: 95

Station Type: Fine Offset WH2081

http://www.sedgleymanor.com/wx/index.htm

Latest ConditionsUpdated 7:45:01 AM GMT+08:08 Saturday, Oct 25, 2014
Currently Today's Max Today's Min Today's Average
Temperature 70.0°F21.1°C 71.8°F22.1°C 54.9°F12.7°C 58.3°F14.6°C
Dew Point 55.0°F12.8°C 59.1°F15.1°C 53.5°F11.9°C 55.6°F13.1°C
Winds 2.9 mph SW4.7 kmh SW 3.0 mph N4.8 kmh N - 1.0 mph 1.6 kmh
Wind Gusts 8.3 mph13.4 kmh 9.8 mph15.8 kmh - -
Humidity 59% 100% 59% 91%
Pressure 29.98 in1015.2 mb 29.98 in1015.2 mb 29.92 in1013.2 mb -
Hour Temp Dew Point Humidity Winds Wind Gusts Pressure Precip Precip Rate Daily Precip Total
07:45 AM 70.0°F21.1°C 55.0°F12.8°C 59% 2.9 mph SW4.7 kmh SW 8.3 mph13.4 kmh 29.98 in1015.2 mb 0.00 in0.0 mm 0.00 in/hr0.0 mm/hr 0.00 in0.0 mm
07:30 AM 71.8°F22.1°C 58.5°F14.7°C 63% 2.2 mph WSW3.5 kmh WSW 6.9 mph11.1 kmh 29.98 in1015.2 mb 0.00 in0.0 mm 0.00 in/hr0.0 mm/hr 0.00 in0.0 mm
07:15 AM 65.5°F18.6°C 56.2°F13.4°C 72% 2.6 mph WSW4.2 kmh WSW 9.8 mph15.8 kmh 29.98 in1015.2 mb 0.00 in0.0 mm 0.00 in/hr0.0 mm/hr 0.00 in0.0 mm
07:00 AM 64.4°F18.0°C 56.3°F13.5°C 75% 2.7 mph WSW4.3 kmh WSW 8.3 mph13.4 kmh 29.97 in1014.9 mb 0.00 in0.0 mm 0.00 in/hr0.0 mm/hr 0.00 in0.0 mm
06:45 AM 63.1°F17.3°C 58.6°F14.8°C 85% 1.8 mph SW2.9 kmh SW 6.9 mph11.1 kmh 29.97 in1014.9 mb 0.00 in0.0 mm 0.00 in/hr0.0 mm/hr 0.00 in0.0 mm
06:30 AM 60.8°F16.0°C 59.1°F15.1°C 94% 0.5 mph E0.8 kmh E 3.1 mph5.0 kmh 29.97 in1014.9 mb 0.00 in0.0 mm 0.00 in/hr0.0 mm/hr 0.00 in0.0 mm
06:15 AM 59.9°F15.5°C 58.8°F14.9°C 96% 0.9 mph SE1.4 kmh SE 3.8 mph6.1 kmh 29.96 in1014.6 mb 0.00 in0.0 mm 0.00 in/hr0.0 mm/hr 0.00 in0.0 mm
06:00 AM 59.2°F15.1°C 58.1°F14.5°C 96% 0.1 mph NE0.2 kmh NE 1.6 mph2.6 kmh 29.96 in1014.6 mb 0.00 in0.0 mm 0.00 in/hr0.0 mm/hr 0.00 in0.0 mm
05:45 AM 58.8°F14.9°C 58.0°F14.4°C 97% Calm Calm 1.6 mph2.6 kmh 29.96 in1014.6 mb 0.00 in0.0 mm 0.00 in/hr0.0 mm/hr 0.00 in0.0 mm
05:30 AM 58.8°F14.9°C 58.0°F14.4°C 97% 0.1 mph E0.2 kmh E 1.6 mph2.6 kmh 29.95 in1014.2 mb 0.00 in0.0 mm 0.00 in/hr0.0 mm/hr 0.00 in0.0 mm
05:15 AM 57.7°F14.3°C 56.9°F13.8°C 97% 0.3 mph S0.5 kmh S 2.2 mph3.5 kmh 29.93 in1013.5 mb 0.00 in0.0 mm 0.00 in/hr0.0 mm/hr 0.00 in0.0 mm
05:00 AM 57.4°F14.1°C 56.5°F13.6°C 97% 0.3 mph WSW0.5 kmh WSW 2.2 mph3.5 kmh 29.94 in1013.9 mb 0.00 in0.0 mm 0.00 in/hr0.0 mm/hr 0.00 in0.0 mm
04:45 AM 56.5°F13.6°C 55.6°F13.1°C 97% 1.3 mph NNE2.1 kmh NNE 3.1 mph5.0 kmh 29.93 in1013.5 mb 0.00 in0.0 mm 0.00 in/hr0.0 mm/hr 0.00 in0.0 mm
04:30 AM 56.5°F13.6°C 55.6°F13.1°C 97% 1.8 mph N2.9 kmh N 4.5 mph7.2 kmh 29.93 in1013.5 mb 0.00 in0.0 mm 0.00 in/hr0.0 mm/hr 0.00 in0.0 mm
04:15 AM 56.3°F13.5°C 55.5°F13.1°C 97% 1.4 mph NE2.3 kmh NE 4.5 mph7.2 kmh 29.93 in1013.5 mb 0.00 in0.0 mm 0.00 in/hr0.0 mm/hr 0.00 in0.0 mm
04:00 AM 56.1°F13.4°C 55.3°F12.9°C 97% 3.0 mph N4.8 kmh N 6.0 mph9.7 kmh 29.93 in1013.5 mb 0.00 in0.0 mm 0.00 in/hr0.0 mm/hr 0.00 in0.0 mm
03:45 AM 55.8°F13.2°C 55.8°F13.2°C 100% 1.6 mph NNE2.6 kmh NNE 3.8 mph6.1 kmh 29.93 in1013.5 mb 0.00 in0.0 mm 0.00 in/hr0.0 mm/hr 0.00 in0.0 mm
03:30 AM 55.2°F12.9°C 54.4°F12.4°C 97% 1.6 mph NE2.6 kmh NE 3.1 mph5.0 kmh 29.93 in1013.5 mb 0.00 in0.0 mm 0.00 in/hr0.0 mm/hr 0.00 in0.0 mm
03:15 AM 54.9°F12.7°C 54.0°F12.2°C 97% 1.2 mph NE1.9 kmh NE 4.5 mph7.2 kmh 29.93 in1013.5 mb 0.00 in0.0 mm 0.00 in/hr0.0 mm/hr 0.00 in0.0 mm
03:00 AM 55.0°F12.8°C 53.9°F12.2°C 96% 1.0 mph NE1.6 kmh NE 3.1 mph5.0 kmh 29.92 in1013.2 mb 0.00 in0.0 mm 0.00 in/hr0.0 mm/hr 0.00 in0.0 mm
02:45 AM 55.4°F13.0°C 54.0°F12.2°C 95% 0.9 mph ENE1.4 kmh ENE 3.1 mph5.0 kmh 29.93 in1013.5 mb 0.00 in0.0 mm 0.00 in/hr0.0 mm/hr 0.00 in0.0 mm
02:30 AM 55.2°F12.9°C 54.1°F12.3°C 96% 0.5 mph ENE0.8 kmh ENE 2.2 mph3.5 kmh 29.93 in1013.5 mb 0.00 in0.0 mm 0.00 in/hr0.0 mm/hr 0.00 in0.0 mm
02:15 AM 55.2°F12.9°C 53.8°F12.1°C 95% 0.8 mph E1.3 kmh E 2.2 mph3.5 kmh 29.93 in1013.5 mb 0.00 in0.0 mm 0.00 in/hr0.0 mm/hr 0.00 in0.0 mm
02:00 AM 55.6°F13.1°C 53.9°F12.2°C 94% 0.1 mph E0.2 kmh E 1.6 mph2.6 kmh 29.93 in1013.5 mb 0.00 in0.0 mm 0.00 in/hr0.0 mm/hr 0.00 in0.0 mm
01:45 AM 56.1°F13.4°C 54.4°F12.4°C 94% Calm Calm -- 29.93 in1013.5 mb 0.00 in0.0 mm 0.00 in/hr0.0 mm/hr 0.00 in0.0 mm
01:30 AM 56.3°F13.5°C 54.6°F12.6°C 94% 0.2 mph NE0.3 kmh NE 1.6 mph2.6 kmh 29.93 in1013.5 mb 0.00 in0.0 mm 0.00 in/hr0.0 mm/hr 0.00 in0.0 mm
01:15 AM 56.3°F13.5°C 54.6°F12.6°C 94% 0.1 mph N0.2 kmh N 1.6 mph2.6 kmh 29.93 in1013.5 mb 0.00 in0.0 mm 0.00 in/hr0.0 mm/hr 0.00 in0.0 mm
01:00 AM 56.1°F13.4°C 54.1°F12.3°C 93% 0.6 mph NE1.0 kmh NE 2.2 mph3.5 kmh 29.93 in1013.5 mb 0.00 in0.0 mm 0.00 in/hr0.0 mm/hr 0.00 in0.0 mm
12:45 AM 55.8°F13.2°C 53.5°F11.9°C 92% Calm Calm -- 29.93 in1013.5 mb 0.00 in0.0 mm 0.00 in/hr0.0 mm/hr 0.00 in0.0 mm
12:30 AM 56.5°F13.6°C 54.2°F12.3°C 92% Calm Calm -- 29.93 in1013.5 mb 0.00 in0.0 mm 0.00 in/hr0.0 mm/hr 0.00 in0.0 mm
12:15 AM 56.8°F13.8°C 54.3°F12.4°C 91% Calm Calm -- 29.93 in1013.5 mb 0.00 in0.0 mm 0.00 in/hr0.0 mm/hr 0.00 in0.0 mm
12:00 AM 57.6°F14.2°C 54.7°F12.6°C 90% Calm Calm -- 29.94 in1013.9 mb 0.00 in0.0 mm 0.00 in/hr0.0 mm/hr 0.00 in0.0 mm